Hlavní strana
METAR-TAF:

METAR-TAF

Letiště :

Letiště Antananarivo

Antananarivo, Madagaskar

zeměpisná šířka: 18-48S, zeměpisná délka: 047-29E, výška: 1279 m

Aktuální stav počasí

Zpráva byla vytvořena před 23 minutami, v 10:30 UTC
Jihojihovýchodní vítr 10 kt, proměnlivý mezi východojihovýchodním a jižním
Teplota 19°C
Vlhkost vzduchu 56%
Tlak 1026 hPa
Viditelnost 10 km a více
Oblačno až skoro zataženo ve výšce 2000 ft

METAR: FMMI 221030Z 15010KT 110V190 9999 BKN020 19/10 Q1026 NOSIG

Čas: 13:53 (10:53 UTC)

Předpověď počasí

Zpráva byla vytvořena před 5 hodinami a 53 minutami, v 05:00 UTC
Předpověď platná od 22 v 06 UTC do 23 v 12 UTC
Jihovýchodní vítr 8 kt
Viditelnost 10 km a více
Skoro jasno ve výšce 1700 ft
Polojasno ve výšce 2000 ft
Pravděpodobnost 40% :
Dočasný
od 23 v 04 UTC do 23 v 12 UTC
Východojihovýchodní vítr 15 kt s nárazy do 25 kt

TAF: FMMI 220500Z 2206/2312 14008KT 9999 FEW017 SCT020 PROB40 TEMPO 2304/2312 12015G25KT

Stav a předpovědi počasí z více než 4 000 letišť (zprávy METAR a TAF).

Červené a žluté tečky na mapě představují dostupné meteorologické stanice.

Když kurzor umístíte na tečku, zobrazí se název stanice.

Pak kliknutím zobrazíte stav a předpověď počasí.

Chcete-li změnit mapu, kliknutím na zelené tlačítko se znaménkem +mapu přiblížíte, kliknutím na zelené tlačítko se znaménkem – mapu oddálíte a kliknutím na zelené šipky přejdete na sousední mapy.


METAR-TAF: